• Join FlightAware (Why Join?)
  • Login
  • US Flag 
02:19PM EDT


 

Airport Tracker/Info


-or-


 

Live Flight TrackerFlight Track Log ✈ FFT795 ✈ 10-May-2013 ✈ KDEN - KPDX

Flight Track Log - Related Links

Times and Time Zones

All times are in EDT time to prevent confusion due to time zone crossing. See the FFT795 flight status page for this flight to view local times or setup timezone preferences in your user account.

Time Position Orientation Groundspeed Altitude Reporting Facility
EDT Latitude Longitude Course Direction KTS MPH feet Rate Location/Type
02:28PM 39.8333 -104.7833 270° West 207 238 7,100  Level Denver TRACON
02:29PM 39.8333 -104.9000 270° West 287 330 9,400 2,460 Climbing Denver TRACON
02:30PM 39.8128 -104.9728 250° West 303 349 11,800 3,000 Climbing Denver Center
02:31PM 39.7858 -105.0742 251° West 299 344 14,900 2,700 Climbing Denver Center
02:32PM 39.7586 -105.1797 251° West 308 354 17,400 2,340 Climbing Denver Center
02:33PM 39.7300 -105.2994 253° West 321 369 19,800 2,100 Climbing Denver Center
02:34PM 39.7011 -105.4128 252° West 332 382 21,800 1,980 Climbing Denver Center
02:35PM 39.6764 -105.5439 256° West 347 399 23,900 1,560 Climbing Denver Center
02:36PM 39.6633 -105.6750 263° West 367 422 25,100 960 Climbing Denver Center
02:37PM 39.6689 -105.8256 273° West 403 464 25,900 1,020 Climbing Denver Center
02:38PM 39.7306 -105.9572 301° West 424 488 27,300 1,320 Climbing Denver Center
02:39PM 39.7911 -106.0942 300° West 436 502 28,700 1,380 Climbing Denver Center
02:40PM 39.8539 -106.2336 300° West 445 512 30,200 1,560 Climbing Denver Center
02:41PM 39.9150 -106.3733 300° West 446 513 32,000 1,740 Climbing Denver Center
02:42PM 39.9853 -106.5297 300° West 445 512 33,800 960 Climbing Denver Center
02:43PM 40.0525 -106.6828 300° West 438 504 34,000 60 Climbing Denver Center
02:44PM 40.1094 -106.8142 300° West 435 501 34,000  Level Denver Center
02:45PM 40.1764 -106.9672 300° West 435 501 34,000  Level Denver Center
02:46PM 40.2333 -107.0986 300° West 435 501 34,000  Level Denver Center
02:47PM 40.2897 -107.2289 300° West 431 496 34,000  Level Denver Center
02:48PM 40.3553 -107.3825 299° West 433 498 34,000  Level Denver Center
02:49PM 40.4111 -107.5128 299° West 430 495 34,000  Level Denver Center
02:50PM 40.4775 -107.6683 299° West 436 502 34,000  Level Denver Center
02:51PM 40.5331 -107.8006 299° West 434 499 34,000  Level Denver Center
02:52PM 40.5797 -107.9111 299° West 434 499 34,000  Level Denver Center
02:53PM 40.6533 -108.0867 299° West 433 498 34,000  Level Denver Center
02:54PM 40.7183 -108.2400 299° West 432 497 34,000 480 Level Denver Center
02:55PM 40.7744 -108.3772 298° West 429 494 35,100 960 Climbing Denver Center
02:56PM 40.8300 -108.5100 299° West 430 495 36,000 420 Climbing Salt Lake Center
02:57PM 40.8917 -108.6617 298° West 421 484 36,000  Level Salt Lake Center
02:58PM 40.9461 -108.7931 299° West 423 487 36,000  Level Salt Lake Center
02:59PM 41.0097 -108.9481 299° West 428 493 36,000  Level Salt Lake Center
03:00PM 41.0639 -109.0819 298° West 429 494 36,000  Level Salt Lake Center
03:02PM 41.1175 -109.2156 298° West 427 491 36,000  Level Salt Lake Center
03:03PM 41.1794 -109.3706 298° West 423 487 36,000  Level Salt Lake Center
03:04PM 41.2322 -109.5036 298° West 423 487 36,000  Level Salt Lake Center
03:05PM 41.2942 -109.6581 298° West 421 484 36,000  Level Salt Lake Center
03:06PM 41.3469 -109.7889 298° West 419 482 36,000  Level Salt Lake Center
03:07PM 41.4072 -109.9444 297° West 421 484 36,000  Level Salt Lake Center
03:08PM 41.4597 -110.0764 298° West 421 484 36,000  Level Salt Lake Center
03:09PM 41.5117 -110.2083 298° West 419 482 36,000  Level Salt Lake Center
03:10PM 41.5706 -110.3617 297° West 417 480 36,000  Level Salt Lake Center
03:11PM 41.6211 -110.4953 297° West 420 483 36,000  Level Salt Lake Center
03:12PM 41.6819 -110.6475 298° West 417 480 36,000  Level Salt Lake Center
03:13PM 41.7319 -110.7797 297° West 416 479 36,000  Level Salt Lake Center
03:14PM 41.7900 -110.9325 297° West 413 475 36,000  Level Salt Lake Center
03:15PM 41.8406 -111.0650 297° West 414 476 36,000  Level Salt Lake Center
03:16PM 41.8917 -111.2014 297° West 412 474 36,000  Level Salt Lake Center
03:17PM 41.9436 -111.3397 297° West 416 479 36,000  Level Salt Lake Center
03:18PM 42.0058 -111.5064 297° West 418 481 36,100  Climbing Salt Lake Center
03:19PM 42.0586 -111.6478 297° West 424 488 36,100  Level Salt Lake Center
03:20PM 42.1103 -111.7875 297° West 421 484 36,100 -60 Level Salt Lake Center
03:21PM 42.1619 -111.9269 297° West 419 482 36,000 -60 Descending Salt Lake Center
03:22PM 42.2131 -112.0664 296° West 417 480 36,000  Level Salt Lake Center
03:23PM 42.2650 -112.2072 297° West 418 481 36,000  Level Salt Lake Center
03:24PM 42.3250 -112.3750 296° West 416 479 36,000  Level Salt Lake Center
03:25PM 42.3769 -112.5139 297° West 416 479 36,000  Level Salt Lake Center
03:26PM 42.4264 -112.6542 296° West 415 478 36,000  Level Salt Lake Center
03:27PM 42.4758 -112.7947 296° West 415 478 36,000  Level Salt Lake Center
03:28PM 42.5256 -112.9333 296° West 414 476 36,000  Level Salt Lake Center
03:29PM 42.5850 -113.1031 295° West 416 479 36,000  Level Salt Lake Center
03:30PM 42.6344 -113.2442 296° West 416 479 36,000  Level Salt Lake Center
03:31PM 42.6833 -113.3794 296° West 413 475 36,100  Climbing Salt Lake Center
03:32PM 42.7383 -113.5381 295° West 416 479 36,000 -60 Descending Salt Lake Center
03:34PM 42.7847 -113.6700 296° West 407 468 36,000  Level Salt Lake Center
03:35PM 42.8392 -113.8267 295° West 409 471 36,000  Level Salt Lake Center
03:36PM 42.8853 -113.9753 293° West 413 475 36,000  Level Salt Lake Center
03:37PM 42.9344 -114.1156 296° West 410 472 36,000  Level Salt Lake Center
03:38PM 42.9853 -114.2572 296° West 415 478 36,100  Climbing Salt Lake Center
03:39PM 43.0289 -114.3964 293° West 416 479 36,100 -60 Level Salt Lake Center
03:40PM 43.0836 -114.5544 295° West 411 473 36,000 -60 Descending Salt Lake Center
03:41PM 43.1286 -114.6917 294° West 412 474 36,000  Level Salt Lake Center
03:42PM 43.1825 -114.8506 295° West 412 474 36,000  Level Salt Lake Center
03:43PM 43.2278 -114.9883 294° West 414 476 36,000  Level Salt Lake Center
03:44PM 43.2800 -115.1494 294° West 414 476 36,000  Level Salt Lake Center
03:45PM 43.3253 -115.2853 295° West 410 472 36,000  Level Salt Lake Center
03:46PM 43.3769 -115.4461 294° West 412 474 36,000  Level Salt Lake Center
03:47PM 43.4208 -115.5833 294° West 410 472 36,000  Level Salt Lake Center
03:48PM 43.4653 -115.7203 294° West 409 471 36,000  Level Salt Lake Center
03:49PM 43.5167 -115.8831 294° West 413 475 36,000  Level Salt Lake Center
03:50PM 43.5617 -116.0231 294° West 416 479 36,100  Climbing Salt Lake Center
03:51PM 43.6128 -116.1869 293° West 416 479 36,100 -60 Level Salt Lake Center
03:52PM 43.6564 -116.3269 293° West 413 475 36,000 -60 Descending Salt Lake Center
03:53PM 43.6997 -116.4650 294° West 409 471 36,000  Level Salt Lake Center
03:54PM 43.7503 -116.6283 293° West 414 476 36,000  Level Salt Lake Center
03:55PM 43.7936 -116.7697 293° West 417 480 36,100  Climbing Salt Lake Center
03:56PM 43.8447 -116.9364 293° West 420 483 36,100  Level Salt Lake Center
03:57PM 43.8883 -117.0786 293° West 418 481 36,100 -60 Level Salt Lake Center
03:58PM 43.9383 -117.2419 293° West 411 473 36,000 -60 Descending Salt Lake Center
03:59PM 43.9797 -117.3819 292° West 411 473 36,000  Level Salt Lake Center
04:00PM 44.0214 -117.5206 293° West 407 468 36,000  Level Salt Lake Center
04:01PM 44.0708 -117.6831 293° West 410 472 36,000  Level Salt Lake Center
04:02PM 44.1122 -117.8233 292° West 409 471 36,000  Level Salt Lake Center
04:03PM 44.1594 -117.9875 292° West 409 471 36,100  Climbing Salt Lake Center
04:04PM 44.2006 -118.1275 292° West 407 468 36,000 -60 Descending Salt Lake Center
04:05PM 44.2417 -118.2678 292° West 408 470 36,000  Level Salt Lake Center
04:06PM 44.2828 -118.4086 292° West 406 467 36,000  Level Salt Lake Center
04:07PM 44.3081 -118.4956 292° West 406 467 36,000  Level Seattle Center
04:08PM 44.3497 -118.6414 292° West 405 466 36,000  Level Seattle Center
04:09PM 44.3908 -118.7883 291° West 406 467 36,000  Level Seattle Center
04:10PM 44.4333 -118.9336 292° West 406 467 36,000  Level Seattle Center
04:11PM 44.4744 -119.0794 292° West 403 464 36,000  Level Seattle Center
04:12PM 44.5236 -119.2561 291° West 407 468 36,000  Level Seattle Center
04:13PM 44.5633 -119.4011 291° West 400 460 36,000  Level Seattle Center
04:14PM 44.6044 -119.5458 292° West 399 459 36,000  Level Seattle Center
04:15PM 44.6442 -119.6894 291° West 396 456 36,000  Level Seattle Center
04:16PM 44.7056 -119.8181 304° West 395 455 36,000  Level Seattle Center
04:17PM 44.7706 -119.9425 306° West 393 452 36,100  Climbing Seattle Center
04:18PM 44.8364 -120.0664 307° West 390 449 36,000 -60 Descending Seattle Center
04:19PM 44.9019 -120.1883 307° West 384 442 36,000 -300 Level Seattle Center
04:20PM 44.9658 -120.3092 307° West 381 438 35,400 -840 Descending Seattle Center
04:21PM 45.0294 -120.4328 306° West 388 447 34,400 -1,860 Descending Seattle Center
04:22PM 45.0944 -120.5581 306° West 395 455 31,700 -2,520 Descending Seattle Center
04:23PM 45.1583 -120.6833 306° West 393 452 29,300 -2,280 Descending Seattle Center
04:24PM 45.2217 -120.8042 307° West 386 444 27,100 -2,160 Descending Seattle Center
04:25PM 45.2839 -120.9244 306° West 381 438 24,900 -2,220 Descending Seattle Center
04:26PM 45.3442 -121.0439 306° West 375 432 22,700 -2,160 Descending Seattle Center
04:27PM 45.4050 -121.1631 306° West 374 430 20,600 -2,520 Descending Seattle Center
04:28PM 45.4406 -121.3275 287° West 384 442 17,600 -2,580 Descending Seattle Center
04:29PM 45.4567 -121.4228 284° West 371 427 16,300 -2,100 Descending Seattle Center
04:29PM 45.4572 -121.4714 271° West 373 429 15,500 -1,860 Descending Seattle Center
04:30PM 45.4686 -121.5197 289° West 361 415 15,000 -1,800 Descending Seattle Center
04:30PM 45.4744 -121.6092 275° West 359 413 13,700 -2,220 Descending Seattle Center
04:31PM 45.4844 -121.6553 287° West 346 398 12,800 -2,100 Descending Seattle Center
04:31PM 45.4917 -121.7425 277° West 348 400 11,600 -1,860 Descending Seattle Center
04:32PM 45.4994 -121.7786 287° West 343 395 11,100 -1,200 Descending Seattle Center
04:32PM 45.5011 -121.8692 272° West 331 381 10,400 -1,320 Descending Seattle Center
04:33PM 45.5031 -121.9100 274° West 290 334 9,800 -2,220 Descending Seattle Center
04:33PM 45.5033 -121.9800 270° West 301 346 8,200 -2,100 Descending Seattle Center
04:34PM 45.5056 -122.0264 274° West 287 330 7,700 -1,980 Descending Seattle Center
04:34PM 45.5044 -122.0906 269° West 288 331 6,200 -1,440 Descending Seattle Center
04:36PM 45.5097 -122.1997 274° West 282 325 5,200 -1,260 Descending Seattle Center
04:37PM 45.5122 -122.3003 272° West 270 311 3,700 -1,380 Descending Seattle Center
04:38PM 45.5214 -122.4075 277° West 245 282 2,500 -1,140 Descending Seattle Center
04:39PM 45.5472 -122.4764 298° West 215 247 1,500 -1,020 Descending Seattle Center
04:39PM 45.5536 -122.4942 297° West 173 199 1,200 -720 Descending Seattle Center
04:40PM 45.5689 -122.5261 304° West 186 214 800 -600 Descending Seattle Center
04:40PM 45.5708 -122.5364 285° West 118 136 600 -540 Descending Seattle Center
04:41PM 45.5828 -122.5650 301° West 166 191 300 -420 Descending Seattle Center